createdAt,value
2019-01-19T00:00:28.253Z,43.17
2019-01-19T00:01:28.247Z,45.62
2019-01-19T00:02:28.235Z,47.51
2019-01-19T00:03:28.221Z,44.02
2019-01-19T00:04:28.240Z,38.84
2019-01-19T00:05:28.200Z,34.59
2019-01-19T00:06:28.188Z,32.62
2019-01-19T00:07:28.181Z,30.82
2019-01-19T00:08:28.169Z,27.62
2019-01-19T00:09:28.189Z,27.43
2019-01-19T00:10:28.158Z,29.03
2019-01-19T00:11:28.137Z,31.86
2019-01-19T00:12:28.123Z,31.10
2019-01-19T00:13:28.116Z,30.26
2019-01-19T00:14:28.134Z,29.03
2019-01-19T00:15:28.097Z,28.85
2019-01-19T00:16:28.085Z,28.85
2019-01-19T00:17:28.072Z,29.03
2019-01-19T00:18:28.064Z,29.97
2019-01-19T00:19:29.001Z,29.88
2019-01-19T00:20:31.003Z,30.92
2019-01-19T00:21:28.028Z,32.14
2019-01-19T00:22:28.019Z,33.18
2019-01-19T00:23:28.006Z,34.41
2019-01-19T00:24:28.886Z,36.57
2019-01-19T00:25:28.014Z,38.37
2019-01-19T00:26:27.976Z,40.53
2019-01-19T00:27:27.969Z,42.80
2019-01-19T00:28:27.955Z,45.62
2019-01-19T00:29:27.942Z,46.75
2019-01-19T00:30:27.969Z,44.02
2019-01-19T00:31:27.922Z,40.53
2019-01-19T00:32:27.914Z,38.46
2019-01-19T00:33:28.398Z,36.57
2019-01-19T00:34:33.964Z,35.44
2019-01-19T00:35:27.904Z,35.91
2019-01-19T00:36:27.872Z,37.52
2019-01-19T00:37:27.857Z,39.59
2019-01-19T00:38:27.848Z,40.63
2019-01-19T00:39:27.838Z,40.53
2019-01-19T00:40:27.854Z,41.10
2019-01-19T00:41:27.813Z,39.31
2019-01-19T00:42:27.805Z,37.99
2019-01-19T00:43:28.455Z,36.76
2019-01-19T00:44:27.786Z,36.20
2019-01-19T00:45:27.798Z,36.76
2019-01-19T00:46:27.761Z,38.65
2019-01-19T00:47:27.749Z,36.86
2019-01-19T00:48:27.737Z,33.65
2019-01-19T00:49:27.756Z,31.67
2019-01-19T00:50:27.718Z,30.82
2019-01-19T00:51:27.708Z,30.54
2019-01-19T00:52:27.696Z,30.73
2019-01-19T00:53:28.378Z,32.90
2019-01-19T00:54:27.704Z,35.44
2019-01-19T00:55:27.664Z,36.38
2019-01-19T00:56:28.670Z,36.86
2019-01-19T00:57:27.640Z,36.76
2019-01-19T00:58:27.632Z,35.44
2019-01-19T00:59:27.622Z,34.22
2019-01-19T01:00:27.648Z,33.65
2019-01-19T01:01:27.600Z,30.82
2019-01-19T01:02:27.589Z,27.81
2019-01-19T01:03:27.580Z,25.45
2019-01-19T01:04:27.569Z,24.41
2019-01-19T01:05:27.588Z,24.04
2019-01-19T01:06:27.543Z,24.79
2019-01-19T01:07:27.535Z,26.49
2019-01-19T01:08:27.527Z,28.75
2019-01-19T01:09:27.511Z,32.14
2019-01-19T01:10:27.531Z,35.72
2019-01-19T01:11:27.490Z,37.71
2019-01-19T01:12:27.479Z,36.20
2019-01-19T01:13:27.471Z,35.53
2019-01-19T01:14:27.459Z,36.20
2019-01-19T01:15:27.474Z,37.71
2019-01-19T01:16:27.435Z,38.08
2019-01-19T01:17:27.426Z,39.03
2019-01-19T01:18:27.415Z,39.87
2019-01-19T01:19:27.407Z,39.50
2019-01-19T01:20:27.422Z,38.93
2019-01-19T01:21:27.382Z,37.52
2019-01-19T01:22:27.374Z,34.78
2019-01-19T01:23:27.367Z,33.56
2019-01-19T01:24:27.351Z,33.47
2019-01-19T01:25:27.377Z,32.80
2019-01-19T01:26:27.329Z,33.28
2019-01-19T01:27:27.317Z,34.22
2019-01-19T01:28:27.337Z,30.63
2019-01-19T01:29:27.297Z,27.43
2019-01-19T01:30:27.286Z,26.30
2019-01-19T01:31:27.301Z,26.20
2019-01-19T01:32:27.267Z,26.39
2019-01-19T01:33:27.253Z,27.15
2019-01-19T01:34:27.240Z,28.19
2019-01-19T01:35:32.623Z,27.90
2019-01-19T01:36:27.243Z,26.96
2019-01-19T01:37:27.209Z,26.39
2019-01-19T01:38:27.203Z,26.58
2019-01-19T01:39:27.188Z,27.71
2019-01-19T01:40:28.135Z,28.19
2019-01-19T01:41:27.875Z,30.44
2019-01-19T01:42:27.156Z,30.16
2019-01-19T01:43:27.148Z,28.00
2019-01-19T01:44:27.138Z,25.92
2019-01-19T01:45:27.123Z,24.88
2019-01-19T01:46:27.155Z,24.51
2019-01-19T01:47:27.103Z,25.54
2019-01-19T01:48:27.091Z,26.49
2019-01-19T01:49:27.081Z,25.07
2019-01-19T01:50:27.077Z,22.62
2019-01-19T01:51:27.086Z,21.11
2019-01-19T01:52:27.218Z,20.36
2019-01-19T01:53:27.040Z,21.87
2019-01-19T01:54:27.026Z,25.26
2019-01-19T01:55:27.027Z,27.34
2019-01-19T01:56:27.038Z,28.28
2019-01-19T01:57:26.990Z,28.28
2019-01-19T01:58:26.985Z,27.81
2019-01-19T01:59:27.504Z,28.47
2019-01-19T02:00:26.958Z,28.47
2019-01-19T02:01:27.937Z,26.20
2019-01-19T02:02:26.944Z,22.72
2019-01-19T02:03:26.926Z,20.26
2019-01-19T02:04:26.919Z,19.13
2019-01-19T02:05:26.935Z,18.85
2019-01-19T02:06:26.894Z,19.32
2019-01-19T02:07:26.913Z,19.42
2019-01-19T02:08:26.873Z,18.85
2019-01-19T02:09:26.862Z,18.48
2019-01-19T02:10:26.850Z,17.91
2019-01-19T02:11:26.841Z,17.06
2019-01-19T02:12:26.856Z,16.59
2019-01-19T02:13:26.816Z,15.46
2019-01-19T02:14:26.805Z,15.27
2019-01-19T02:15:26.798Z,15.08
2019-01-19T02:16:26.784Z,15.46
2019-01-19T02:17:26.807Z,15.55
2019-01-19T02:18:26.764Z,16.21
2019-01-19T02:19:26.819Z,17.16
2019-01-19T02:20:26.744Z,18.48
2019-01-19T02:21:26.764Z,19.79
2019-01-19T02:22:26.719Z,21.96
2019-01-19T02:23:26.775Z,21.58
2019-01-19T02:24:26.695Z,20.36
2019-01-19T02:25:26.688Z,19.70
2019-01-19T02:26:26.675Z,19.04
2019-01-19T02:27:26.692Z,19.23
2019-01-19T02:28:26.655Z,19.89
2019-01-19T02:29:26.643Z,20.17
2019-01-19T02:30:26.632Z,19.13
2019-01-19T02:31:26.624Z,19.60
2019-01-19T02:32:26.640Z,19.79
2019-01-19T02:33:26.599Z,20.83
2019-01-19T02:34:26.591Z,20.83
2019-01-19T02:35:26.584Z,21.30
2019-01-19T02:36:26.566Z,22.25
2019-01-19T02:37:26.583Z,22.81
2019-01-19T02:38:26.545Z,22.72
2019-01-19T02:39:27.585Z,21.49
2019-01-19T02:40:26.523Z,19.89
2019-01-19T02:41:26.516Z,18.95
2019-01-19T02:42:26.529Z,19.04
2019-01-19T02:43:26.494Z,19.51
2019-01-19T02:44:26.481Z,20.73
2019-01-19T02:45:26.474Z,21.77
2019-01-19T02:46:26.458Z,22.34
2019-01-19T02:47:26.477Z,23.85
2019-01-19T02:48:26.437Z,24.88
2019-01-19T02:49:26.425Z,25.54
2019-01-19T02:50:26.414Z,22.81
2019-01-19T02:51:26.405Z,21.87
2019-01-19T02:52:26.425Z,20.26
2019-01-19T02:53:26.409Z,17.82
2019-01-19T02:54:26.373Z,16.97
2019-01-19T02:55:26.361Z,17.44
2019-01-19T02:56:26.350Z,17.06
2019-01-19T02:57:26.336Z,15.55
2019-01-19T02:58:26.357Z,14.04
2019-01-19T02:59:26.318Z,12.54
2019-01-19T03:00:26.305Z,11.12
2019-01-19T03:01:26.293Z,9.89
2019-01-19T03:02:26.288Z,9.05
2019-01-19T03:03:26.297Z,7.82
2019-01-19T03:04:26.258Z,7.35
2019-01-19T03:05:26.248Z,7.54
2019-01-19T03:06:26.239Z,8.11
2019-01-19T03:07:26.227Z,9.23
2019-01-19T03:08:26.243Z,10.65
2019-01-19T03:09:26.207Z,12.92
2019-01-19T03:10:26.191Z,11.97
2019-01-19T03:11:26.184Z,11.12
2019-01-19T03:12:26.170Z,11.50
2019-01-19T03:13:26.191Z,13.39
2019-01-19T03:14:26.151Z,15.17
2019-01-19T03:15:26.138Z,16.97
2019-01-19T03:16:26.125Z,19.98
2019-01-19T03:17:26.118Z,19.98
2019-01-19T03:18:26.135Z,22.06
2019-01-19T03:19:26.097Z,24.22
2019-01-19T03:20:26.081Z,24.32
2019-01-19T03:21:26.075Z,22.81
2019-01-19T03:22:26.061Z,22.06
2019-01-19T03:23:26.078Z,19.89
2019-01-19T03:24:26.071Z,17.16
2019-01-19T03:25:26.030Z,15.27
2019-01-19T03:26:26.017Z,15.64
2019-01-19T03:27:26.004Z,16.97
2019-01-19T03:28:26.001Z,19.60
2019-01-19T03:29:26.013Z,20.07
2019-01-19T03:30:25.974Z,17.91
2019-01-19T03:31:25.984Z,15.74
2019-01-19T03:32:25.949Z,14.98
2019-01-19T03:33:25.941Z,13.01
2019-01-19T03:34:25.955Z,12.25
2019-01-19T03:35:25.918Z,10.36
2019-01-19T03:36:25.904Z,8.67
2019-01-19T03:37:25.897Z,7.16
2019-01-19T03:38:25.884Z,6.97
2019-01-19T03:39:25.901Z,7.45
2019-01-19T03:40:25.861Z,7.35
2019-01-19T03:41:25.850Z,7.45
2019-01-19T03:42:25.839Z,7.64
2019-01-19T03:43:25.834Z,7.54
2019-01-19T03:44:25.842Z,8.11
2019-01-19T03:45:25.807Z,8.95
2019-01-19T03:46:25.795Z,9.99
2019-01-19T03:47:25.784Z,10.46
2019-01-19T03:48:25.770Z,12.16
2019-01-19T03:49:25.791Z,14.79
2019-01-19T03:50:25.751Z,16.40
2019-01-19T03:51:25.737Z,15.64
2019-01-19T03:52:25.725Z,14.61
2019-01-19T03:53:25.720Z,13.76
2019-01-19T03:54:25.735Z,14.42
2019-01-19T03:55:25.695Z,14.51
2019-01-19T03:56:25.681Z,14.51
2019-01-19T03:57:25.672Z,13.57
2019-01-19T03:58:25.663Z,13.01
2019-01-19T03:59:25.680Z,13.10
2019-01-19T04:00:25.639Z,13.57
2019-01-19T04:01:25.625Z,11.97
2019-01-19T04:02:25.616Z,10.27
2019-01-19T04:03:26.755Z,8.76
2019-01-19T04:04:25.637Z,8.20
2019-01-19T04:05:25.608Z,8.01
2019-01-19T04:06:25.573Z,8.11
2019-01-19T04:07:25.560Z,8.01
2019-01-19T04:08:25.547Z,8.67
2019-01-19T04:09:25.537Z,9.42
2019-01-19T04:10:25.557Z,9.61
2019-01-19T04:11:25.517Z,10.55
2019-01-19T04:12:25.505Z,11.40
2019-01-19T04:13:25.492Z,10.18
2019-01-19T04:14:25.474Z,9.89
2019-01-19T04:15:25.499Z,9.61
2019-01-19T04:16:25.488Z,8.95
2019-01-19T04:17:25.447Z,9.23
2019-01-19T04:18:25.441Z,8.95
2019-01-19T04:19:25.427Z,8.76
2019-01-19T04:20:25.417Z,8.29
2019-01-19T04:21:25.432Z,8.67
2019-01-19T04:22:25.405Z,9.33
2019-01-19T04:23:25.381Z,9.99
2019-01-19T04:24:25.372Z,10.18
2019-01-19T04:25:25.357Z,9.89
2019-01-19T04:26:25.373Z,10.46
2019-01-19T04:27:25.338Z,11.12
2019-01-19T04:28:25.324Z,12.07
2019-01-19T04:29:25.317Z,12.54
2019-01-19T04:30:25.304Z,13.85
2019-01-19T04:31:25.320Z,14.42
2019-01-19T04:32:25.280Z,12.63
2019-01-19T04:33:25.298Z,10.36
2019-01-19T04:34:25.255Z,9.52
2019-01-19T04:35:25.245Z,7.64
2019-01-19T04:36:25.233Z,5.84
2019-01-19T04:37:25.253Z,3.86
2019-01-19T04:38:25.219Z,2.55
2019-01-19T04:39:25.271Z,2.07
2019-01-19T04:40:25.189Z,2.92
2019-01-19T04:41:25.176Z,3.77
2019-01-19T04:42:25.195Z,4.14
2019-01-19T04:43:25.162Z,4.61
2019-01-19T04:44:25.145Z,4.61
2019-01-19T04:45:25.141Z,4.80
2019-01-19T04:46:25.126Z,5.18
2019-01-19T04:47:25.148Z,6.41
2019-01-19T04:48:25.103Z,6.88
2019-01-19T04:49:25.088Z,7.16
2019-01-19T04:50:25.075Z,7.16
2019-01-19T04:51:25.069Z,8.29
2019-01-19T04:52:25.080Z,9.61
2019-01-19T04:53:25.044Z,11.31
2019-01-19T04:54:25.032Z,12.72
2019-01-19T04:55:25.019Z,11.87
2019-01-19T04:56:25.005Z,10.93
2019-01-19T04:57:25.018Z,10.17
2019-01-19T04:58:24.985Z,10.46
2019-01-19T04:59:24.976Z,11.49
2019-01-19T05:00:24.963Z,12.06
2019-01-19T05:01:24.949Z,10.55
2019-01-19T05:02:24.969Z,8.76
2019-01-19T05:03:24.930Z,8.76
2019-01-19T05:04:24.917Z,9.23
2019-01-19T05:05:24.906Z,10.36
2019-01-19T05:06:30.347Z,11.30
2019-01-19T05:07:24.912Z,11.49
2019-01-19T05:08:24.872Z,8.95
2019-01-19T05:09:24.868Z,7.45
2019-01-19T05:10:24.848Z,6.22
2019-01-19T05:11:24.840Z,5.65
2019-01-19T05:12:24.855Z,6.22
2019-01-19T05:13:24.818Z,7.64
2019-01-19T05:14:24.805Z,8.67
2019-01-19T05:15:24.793Z,9.99
2019-01-19T05:16:24.788Z,11.31
2019-01-19T05:17:24.805Z,10.74
2019-01-19T05:18:24.760Z,10.08
2019-01-19T05:19:24.750Z,9.61
2019-01-19T05:20:24.738Z,8.29
2019-01-19T05:21:24.729Z,8.29
2019-01-19T05:22:24.744Z,9.05
2019-01-19T05:23:24.705Z,9.14
2019-01-19T05:24:24.690Z,9.61
2019-01-19T05:25:24.686Z,9.99
2019-01-19T05:26:24.665Z,11.30
2019-01-19T05:27:24.692Z,12.43
2019-01-19T05:28:24.647Z,13.28
2019-01-19T05:29:24.637Z,14.41
2019-01-19T05:30:24.622Z,15.26
2019-01-19T05:31:24.614Z,15.83
2019-01-19T05:32:24.625Z,17.05
2019-01-19T05:33:24.591Z,18.46
2019-01-19T05:34:24.578Z,19.31
2019-01-19T05:35:24.594Z,20.35
2019-01-19T05:36:24.561Z,22.42
2019-01-19T05:37:24.544Z,23.08
2019-01-19T05:38:24.566Z,22.80
2019-01-19T05:39:24.522Z,22.14
2019-01-19T05:40:24.509Z,19.41
2019-01-19T05:41:24.499Z,15.73
2019-01-19T05:42:24.484Z,13.09
2019-01-19T05:43:24.510Z,11.02
2019-01-19T05:44:24.464Z,10.17
2019-01-19T05:45:24.456Z,10.17
2019-01-19T05:46:24.439Z,10.36
2019-01-19T05:47:24.429Z,10.17
2019-01-19T05:48:24.448Z,10.36
2019-01-19T05:49:24.408Z,10.36
2019-01-19T05:50:24.405Z,11.02
2019-01-19T05:51:24.389Z,12.06
2019-01-19T05:52:24.375Z,13.28
2019-01-19T05:53:24.387Z,12.90
2019-01-19T05:54:24.348Z,12.43
2019-01-19T05:55:24.342Z,12.53
2019-01-19T05:56:24.324Z,13.47
2019-01-19T05:57:24.314Z,13.85
2019-01-19T05:58:24.331Z,14.32
2019-01-19T05:59:24.291Z,14.32
2019-01-19T06:00:24.279Z,14.04
2019-01-19T06:01:24.274Z,12.53
2019-01-19T06:02:24.290Z,11.77
2019-01-19T06:03:24.247Z,9.99
2019-01-19T06:04:24.239Z,8.48
2019-01-19T06:05:24.222Z,6.87
2019-01-19T06:06:24.209Z,5.75
2019-01-19T06:07:24.234Z,5.09
2019-01-19T06:08:24.188Z,6.12
2019-01-19T06:09:24.178Z,6.79
2019-01-19T06:10:24.168Z,9.99
2019-01-19T06:11:24.153Z,11.30
2019-01-19T06:12:24.169Z,12.43
2019-01-19T06:13:24.132Z,14.98
2019-01-19T06:14:24.116Z,17.61
2019-01-19T06:15:24.115Z,17.90
2019-01-19T06:16:24.094Z,18.56
2019-01-19T06:17:24.110Z,17.99
2019-01-19T06:18:24.073Z,18.46
2019-01-19T06:19:24.060Z,19.31
2019-01-19T06:20:24.051Z,20.35
2019-01-19T06:21:24.037Z,21.67
2019-01-19T06:22:24.055Z,22.99
2019-01-19T06:23:24.011Z,24.02
2019-01-19T06:24:24.012Z,25.06
2019-01-19T06:25:24.051Z,26.00
2019-01-19T06:26:23.983Z,24.40
2019-01-19T06:27:23.997Z,24.40
2019-01-19T06:28:23.953Z,26.00
2019-01-19T06:29:23.942Z,27.42
2019-01-19T06:30:23.934Z,24.78
2019-01-19T06:31:23.922Z,24.21
2019-01-19T06:32:23.935Z,23.65
2019-01-19T06:33:23.898Z,24.40
2019-01-19T06:34:23.887Z,23.55
2019-01-19T06:35:23.877Z,22.61
2019-01-19T06:36:23.863Z,22.33
2019-01-19T06:37:23.879Z,24.12
2019-01-19T06:38:23.842Z,24.78
2019-01-19T06:39:23.825Z,24.40
2019-01-19T06:40:23.816Z,24.78
2019-01-19T06:41:23.804Z,22.14
2019-01-19T06:42:24.468Z,18.93
2019-01-19T06:43:23.785Z,16.67
2019-01-19T06:44:23.767Z,15.36
2019-01-19T06:45:24.476Z,15.26
2019-01-19T06:46:23.747Z,15.64
2019-01-19T06:47:23.764Z,16.77
2019-01-19T06:48:23.722Z,16.77
2019-01-19T06:49:23.709Z,15.64
2019-01-19T06:50:23.708Z,16.02
2019-01-19T06:51:23.713Z,16.96
2019-01-19T06:52:23.672Z,18.46
2019-01-19T06:53:23.688Z,21.67
2019-01-19T06:54:23.647Z,22.42
2019-01-19T06:55:23.638Z,24.12
2019-01-19T06:56:23.629Z,24.12
2019-01-19T06:57:23.612Z,24.21
2019-01-19T06:58:23.631Z,25.34
2019-01-19T06:59:23.590Z,26.47
2019-01-19T07:00:23.578Z,26.38
2019-01-19T07:01:23.599Z,26.95
2019-01-19T07:02:23.553Z,27.23
2019-01-19T07:03:23.542Z,25.34
2019-01-19T07:04:23.559Z,23.08
2019-01-19T07:05:23.524Z,22.05
2019-01-19T07:06:23.506Z,22.52
2019-01-19T07:07:23.494Z,21.39
2019-01-19T07:08:23.513Z,18.46
2019-01-19T07:09:23.473Z,16.96
2019-01-19T07:10:23.458Z,15.45
2019-01-19T07:11:23.449Z,14.89
2019-01-19T07:12:23.434Z,14.41
2019-01-19T07:13:23.453Z,13.85
2019-01-19T07:14:23.420Z,12.43
2019-01-19T07:15:23.402Z,12.24
2019-01-19T07:16:23.388Z,12.15
2019-01-19T07:17:23.376Z,12.25
2019-01-19T07:18:23.410Z,11.97
2019-01-19T07:19:23.351Z,11.78
2019-01-19T07:20:23.337Z,12.81
2019-01-19T07:21:23.351Z,14.04
2019-01-19T07:22:23.320Z,15.55
2019-01-19T07:23:23.307Z,17.05
2019-01-19T07:24:23.326Z,17.80
2019-01-19T07:25:23.283Z,20.07
2019-01-19T07:26:23.272Z,19.41
2019-01-19T07:27:23.263Z,18.56
2019-01-19T07:28:23.247Z,19.13
2019-01-19T07:29:23.267Z,20.07
2019-01-19T07:30:23.226Z,20.45
2019-01-19T07:31:23.214Z,20.07
2019-01-19T07:32:23.204Z,20.26
2019-01-19T07:33:23.190Z,21.02
2019-01-19T07:34:23.215Z,21.11
2019-01-19T07:35:23.173Z,23.00
2019-01-19T07:36:23.159Z,25.45
2019-01-19T07:37:23.150Z,27.53
2019-01-19T07:38:23.138Z,28.85
2019-01-19T07:39:23.153Z,28.28
2019-01-19T07:40:23.114Z,28.66
2019-01-19T07:41:23.102Z,29.41
2019-01-19T07:42:23.091Z,30.92
2019-01-19T07:43:23.077Z,31.39
2019-01-19T07:44:23.103Z,31.20
2019-01-19T07:45:23.058Z,32.14
2019-01-19T07:46:23.045Z,33.47
2019-01-19T07:47:23.036Z,32.90
2019-01-19T07:48:23.031Z,32.99
2019-01-19T07:49:23.039Z,32.99
2019-01-19T07:50:23.000Z,33.94
2019-01-19T07:51:22.991Z,34.78
2019-01-19T07:52:22.979Z,35.53
2019-01-19T07:53:23.008Z,37.14
2019-01-19T07:54:22.958Z,37.52
2019-01-19T07:55:22.947Z,38.65
2019-01-19T07:56:22.935Z,39.22
2019-01-19T07:57:22.924Z,39.69
2019-01-19T07:58:22.943Z,39.97
2019-01-19T07:59:22.903Z,37.61
2019-01-19T08:00:22.892Z,35.35
2019-01-19T08:01:22.884Z,35.53
2019-01-19T08:02:22.874Z,40.25
2019-01-19T08:03:22.884Z,43.17
2019-01-19T08:04:22.846Z,45.62
2019-01-19T08:05:22.838Z,47.60
2019-01-19T08:06:22.831Z,48.74
2019-01-19T08:07:22.819Z,49.30
2019-01-19T08:08:22.836Z,48.57
2019-01-19T08:09:22.797Z,51.03
2019-01-19T08:10:22.791Z,53.38
2019-01-19T08:11:22.782Z,54.99
2019-01-19T08:12:22.796Z,57.72
2019-01-19T08:13:22.758Z,60.74
2019-01-19T08:14:22.778Z,64.42
2019-01-19T08:15:22.740Z,71.30
2019-01-19T08:16:22.728Z,78.42
2019-01-19T08:17:22.722Z,89.27
2019-01-19T08:18:22.740Z,94.36
2019-01-19T08:19:22.700Z,99.99
2019-01-19T08:20:22.691Z,99.99
2019-01-19T08:21:22.684Z,99.99
2019-01-19T08:22:22.675Z,99.99
2019-01-19T08:23:22.669Z,99.99
2019-01-19T08:24:22.693Z,99.99
2019-01-19T08:25:22.652Z,99.99
2019-01-19T08:26:22.644Z,99.99
2019-01-19T08:27:22.648Z,99.99
2019-01-19T08:28:22.662Z,99.99
2019-01-19T08:29:22.625Z,99.99
2019-01-19T08:30:22.621Z,99.99
2019-01-19T08:31:22.617Z,99.99
2019-01-19T08:32:22.636Z,99.99
2019-01-19T08:33:22.603Z,99.99
2019-01-19T08:34:22.631Z,99.99
2019-01-19T08:35:22.596Z,99.99
2019-01-19T08:36:22.586Z,99.99
2019-01-19T08:37:24.550Z,99.99
2019-01-19T08:38:22.607Z,99.99
2019-01-19T08:39:22.574Z,99.99
2019-01-19T08:40:22.579Z,99.99
2019-01-19T08:41:22.576Z,99.99
2019-01-19T08:42:22.566Z,99.99
2019-01-19T08:43:22.592Z,99.99
2019-01-19T08:44:22.557Z,99.99
2019-01-19T08:45:22.683Z,99.99
2019-01-19T08:46:22.549Z,99.99
2019-01-19T08:47:22.546Z,99.99
2019-01-19T08:48:22.620Z,99.99
2019-01-19T08:49:22.543Z,99.99
2019-01-19T08:50:22.535Z,99.99
2019-01-19T08:51:22.546Z,99.99
2019-01-19T08:52:22.528Z,99.99
2019-01-19T08:53:22.555Z,99.99
2019-01-19T08:54:22.524Z,99.99
2019-01-19T08:55:22.519Z,99.99
2019-01-19T08:56:22.518Z,99.99
2019-01-19T08:57:22.518Z,99.99
2019-01-19T08:58:22.537Z,99.99
2019-01-19T08:59:24.529Z,99.99
2019-01-19T09:00:22.511Z,99.99
2019-01-19T09:01:22.501Z,99.99
2019-01-19T09:02:22.507Z,99.99
2019-01-19T09:03:22.537Z,99.99
2019-01-19T09:04:22.495Z,99.99
2019-01-19T09:05:22.494Z,99.99
2019-01-19T09:06:22.493Z,99.99
2019-01-19T09:07:22.489Z,99.99
2019-01-19T09:08:22.518Z,99.99
2019-01-19T09:09:22.485Z,99.99
2019-01-19T09:10:22.486Z,99.99
2019-01-19T09:11:22.485Z,99.99
2019-01-19T09:12:22.482Z,99.99
2019-01-19T09:13:22.511Z,99.99
2019-01-19T09:14:22.487Z,99.99
2019-01-19T09:15:22.482Z,99.99
2019-01-19T09:16:22.480Z,99.99
2019-01-19T09:17:22.481Z,99.99
2019-01-19T09:18:22.500Z,99.99
2019-01-19T09:19:22.483Z,99.99
2019-01-19T09:20:22.537Z,99.99
2019-01-19T09:21:22.480Z,99.99
2019-01-19T09:22:22.480Z,99.99
2019-01-19T09:23:22.508Z,99.99
2019-01-19T09:24:22.484Z,99.99
2019-01-19T09:25:22.481Z,99.99
2019-01-19T09:26:22.483Z,99.99
2019-01-19T09:27:22.484Z,99.99
2019-01-19T09:28:22.514Z,99.99
2019-01-19T09:29:22.486Z,99.99
2019-01-19T09:30:22.487Z,99.99
2019-01-19T09:31:22.490Z,99.99
2019-01-19T09:32:22.496Z,99.99
2019-01-19T09:33:22.522Z,99.99
2019-01-19T09:34:22.503Z,99.99
2019-01-19T09:35:22.504Z,99.99
2019-01-19T09:36:22.503Z,99.99
2019-01-19T09:37:22.507Z,99.99
2019-01-19T09:38:22.538Z,99.99
2019-01-19T09:39:22.514Z,99.99
2019-01-19T09:40:22.520Z,99.99
2019-01-19T09:41:22.522Z,99.99
2019-01-19T09:42:22.520Z,99.25
2019-01-19T09:43:22.561Z,96.88
2019-01-19T09:44:22.532Z,96.41
2019-01-19T09:45:22.537Z,99.63
2019-01-19T09:46:22.539Z,99.99
2019-01-19T09:47:22.546Z,99.99
2019-01-19T09:48:22.581Z,99.99
2019-01-19T09:49:22.554Z,99.99
2019-01-19T09:50:22.561Z,99.99
2019-01-19T09:51:22.565Z,99.99
2019-01-19T09:52:22.571Z,99.99
2019-01-19T09:53:22.603Z,98.63
2019-01-19T09:54:22.603Z,99.11
2019-01-19T09:55:22.581Z,95.22
2019-01-19T09:56:22.586Z,99.63
2019-01-19T09:57:22.593Z,99.99
2019-01-19T09:58:22.599Z,99.63
2019-01-19T09:59:22.627Z,95.17
2019-01-19T10:00:22.604Z,99.99
2019-01-19T10:01:22.612Z,99.99
2019-01-19T10:02:22.617Z,99.99
2019-01-19T10:03:22.653Z,99.99
2019-01-19T10:04:22.627Z,97.83
2019-01-19T10:05:22.630Z,93.89
2019-01-19T10:06:22.639Z,94.56
2019-01-19T10:07:22.647Z,95.89
2019-01-19T10:08:22.678Z,92.56
2019-01-19T10:09:22.687Z,89.53
2019-01-19T10:10:23.018Z,88.76
2019-01-19T10:11:22.670Z,89.14
2019-01-19T10:12:22.681Z,88.39
2019-01-19T10:13:22.688Z,88.48
2019-01-19T10:14:22.717Z,87.24
2019-01-19T10:15:22.697Z,85.53
2019-01-19T10:16:22.705Z,86.34
2019-01-19T10:17:22.704Z,86.24
2019-01-19T10:18:22.720Z,85.39
2019-01-19T10:19:22.758Z,89.62
2019-01-19T10:20:22.732Z,89.90
2019-01-19T10:21:22.746Z,88.95
2019-01-19T10:22:22.744Z,91.14
2019-01-19T10:23:22.781Z,89.19
2019-01-19T10:24:22.767Z,87.01
2019-01-19T10:25:22.793Z,85.58
2019-01-19T10:26:22.772Z,86.63
2019-01-19T10:27:22.782Z,89.95
2019-01-19T10:28:22.787Z,93.23
2019-01-19T10:29:22.826Z,87.57
2019-01-19T10:30:22.800Z,82.27
2019-01-19T10:31:22.808Z,80.56
2019-01-19T10:32:22.816Z,74.45
2019-01-19T10:33:22.819Z,78.05
2019-01-19T10:34:22.858Z,79.44
2019-01-19T10:35:22.838Z,78.58
2019-01-19T10:36:22.848Z,79.68
2019-01-19T10:37:22.850Z,82.10
2019-01-19T10:38:22.862Z,82.95
2019-01-19T10:39:22.919Z,80.49
2019-01-19T10:40:22.887Z,77.80
2019-01-19T10:41:22.878Z,78.03
2019-01-19T10:42:22.893Z,75.81
2019-01-19T10:43:22.894Z,84.90
2019-01-19T10:44:22.902Z,87.31
2019-01-19T10:45:22.941Z,98.44
2019-01-19T10:46:22.917Z,98.01
2019-01-19T10:47:22.929Z,96.21
2019-01-19T10:48:22.930Z,93.94
2019-01-19T10:49:22.954Z,86.55
2019-01-19T10:50:22.973Z,83.67
2019-01-19T10:51:22.960Z,81.30
2019-01-19T10:52:22.966Z,80.26
2019-01-19T10:53:22.968Z,79.41
2019-01-19T10:54:22.978Z,81.40
2019-01-19T10:55:23.008Z,80.26
2019-01-19T10:56:22.988Z,79.88
2019-01-19T10:57:22.996Z,78.75
2019-01-19T10:58:23.012Z,78.46
2019-01-19T10:59:23.014Z,78.65
2019-01-19T11:00:23.044Z,80.21
2019-01-19T11:01:23.023Z,79.22
2019-01-19T11:02:23.032Z,79.13
2019-01-19T11:03:23.037Z,77.94
2019-01-19T11:04:23.047Z,78.03
2019-01-19T11:05:23.079Z,77.65
2019-01-19T11:06:23.059Z,77.18
2019-01-19T11:07:23.065Z,76.42
2019-01-19T11:08:24.057Z,77.75
2019-01-19T11:09:23.079Z,78.22
2019-01-19T11:10:23.116Z,77.04
2019-01-19T11:11:23.095Z,77.94
2019-01-19T11:12:23.101Z,77.99
2019-01-19T11:13:23.109Z,77.33
2019-01-19T11:14:23.113Z,77.33
2019-01-19T11:15:23.150Z,78.88
2019-01-19T11:16:23.126Z,78.69
2019-01-19T11:17:23.138Z,78.50
2019-01-19T11:18:23.142Z,78.22
2019-01-19T11:19:23.151Z,77.75
2019-01-19T11:20:23.199Z,76.84
2019-01-19T11:21:23.161Z,77.84
2019-01-19T11:22:23.169Z,76.80
2019-01-19T11:23:23.176Z,79.55
2019-01-19T11:24:23.185Z,78.13
2019-01-19T11:25:23.217Z,77.46
2019-01-19T11:26:23.195Z,75.85
2019-01-19T11:27:23.207Z,76.23
2019-01-19T11:28:23.217Z,79.21
2019-01-19T11:29:23.221Z,77.64
2019-01-19T11:30:23.255Z,77.92
2019-01-19T11:31:23.238Z,82.74
2019-01-19T11:32:23.243Z,84.78
2019-01-19T11:33:23.257Z,84.21
2019-01-19T11:34:23.261Z,86.82
2019-01-19T11:35:23.300Z,87.67
2019-01-19T11:36:23.307Z,85.24
2019-01-19T11:37:23.286Z,83.25
2019-01-19T11:38:23.293Z,80.53
2019-01-19T11:39:23.303Z,81.10
2019-01-19T11:40:23.342Z,80.63
2019-01-19T11:41:23.351Z,80.24
2019-01-19T11:42:23.330Z,79.20
2019-01-19T11:43:23.339Z,79.39
2019-01-19T11:44:23.350Z,78.57
2019-01-19T11:45:23.382Z,77.91
2019-01-19T11:46:23.393Z,76.90
2019-01-19T11:47:23.374Z,76.42
2019-01-19T11:48:23.381Z,76.90
2019-01-19T11:49:23.393Z,76.90
2019-01-19T11:50:23.429Z,76.14
2019-01-19T11:51:23.444Z,75.47
2019-01-19T11:52:23.418Z,74.80
2019-01-19T11:53:23.435Z,75.85
2019-01-19T11:54:23.440Z,78.61
2019-01-19T11:55:23.481Z,79.72
2019-01-19T11:56:23.461Z,80.76
2019-01-19T11:57:23.474Z,79.72
2019-01-19T11:58:23.484Z,79.05
2019-01-19T11:59:23.494Z,77.81
2019-01-19T12:00:23.532Z,76.35
2019-01-19T12:01:23.512Z,76.35
2019-01-19T12:02:23.523Z,76.16
2019-01-19T12:03:23.531Z,76.25
2019-01-19T12:04:23.539Z,77.39
2019-01-19T12:05:23.596Z,75.34
2019-01-19T12:06:23.567Z,74.29
2019-01-19T12:07:23.572Z,76.73
2019-01-19T12:08:23.579Z,76.20
2019-01-19T12:09:23.591Z,76.10
2019-01-19T12:10:23.632Z,75.43
2019-01-19T12:11:23.642Z,75.05
2019-01-19T12:12:23.623Z,75.15
2019-01-19T12:13:23.633Z,74.48
2019-01-19T12:14:23.642Z,72.71
2019-01-19T12:15:23.679Z,70.52
2019-01-19T12:16:23.692Z,67.95
2019-01-19T12:17:23.671Z,70.14
2019-01-19T12:18:23.680Z,73.76
2019-01-19T12:19:23.798Z,74.14
2019-01-19T12:20:23.729Z,72.33
2019-01-19T12:21:23.743Z,71.09
2019-01-19T12:22:23.723Z,73.19
2019-01-19T12:23:23.731Z,77.09
2019-01-19T12:24:23.741Z,76.71
2019-01-19T12:25:23.779Z,73.00
2019-01-19T12:26:23.793Z,70.52
2019-01-19T12:27:23.773Z,68.81
2019-01-19T12:28:23.785Z,72.90
2019-01-19T12:29:23.793Z,74.48
2019-01-19T12:30:23.830Z,70.10
2019-01-19T12:31:23.840Z,74.10
2019-01-19T12:32:23.822Z,71.78
2019-01-19T12:33:23.827Z,69.96
2019-01-19T12:34:23.846Z,73.75
2019-01-19T12:35:23.880Z,77.12
2019-01-19T12:36:23.894Z,81.14
2019-01-19T12:37:23.872Z,81.56
2019-01-19T12:38:27.011Z,77.16
2019-01-19T12:39:24.039Z,75.07
2019-01-19T12:40:23.957Z,72.64
2019-01-19T12:41:23.934Z,71.19
2019-01-19T12:42:23.914Z,71.19
2019-01-19T12:43:23.925Z,71.00
2019-01-19T12:44:23.938Z,70.53
2019-01-19T12:45:23.939Z,69.48
2019-01-19T12:46:23.973Z,69.57
2019-01-19T12:47:24.531Z,69.10
2019-01-19T12:48:23.966Z,69.17
2019-01-19T12:49:23.972Z,69.54
2019-01-19T12:50:23.978Z,69.26
2019-01-19T12:51:24.013Z,70.01
2019-01-19T12:52:24.533Z,70.01
2019-01-19T12:53:24.001Z,70.62
2019-01-19T12:54:24.010Z,70.81
2019-01-19T12:55:24.013Z,69.38